createdAt,value
2018-05-31T00:00:01.311Z,60.51
2018-05-31T00:01:04.721Z,60.55
2018-05-31T00:02:01.256Z,60.58
2018-05-31T00:03:01.402Z,60.6
2018-05-31T00:04:01.417Z,60.56
2018-05-31T00:05:01.336Z,60.55
2018-05-31T00:06:01.205Z,60.52
2018-05-31T00:07:01.226Z,60.57
2018-05-31T00:08:01.359Z,60.53
2018-05-31T00:09:01.287Z,60.55
2018-05-31T00:10:04.277Z,60.52
2018-05-31T00:11:01.415Z,60.58
2018-05-31T00:12:01.414Z,60.53
2018-05-31T00:13:01.586Z,60.52
2018-05-31T00:14:01.339Z,60.53
2018-05-31T00:15:01.138Z,60.57
2018-05-31T00:16:01.368Z,60.55
2018-05-31T00:17:01.489Z,60.56
2018-05-31T00:18:01.262Z,60.53
2018-05-31T00:19:03.473Z,60.52
2018-05-31T00:20:01.284Z,60.58
2018-05-31T00:21:01.122Z,60.53
2018-05-31T00:22:01.382Z,60.58
2018-05-31T00:23:01.304Z,60.59
2018-05-31T00:24:01.213Z,60.58
2018-05-31T00:25:01.515Z,60.56
2018-05-31T00:26:01.263Z,60.56
2018-05-31T00:27:01.239Z,60.59
2018-05-31T00:28:02.674Z,60.6
2018-05-31T00:29:01.202Z,60.6
2018-05-31T00:30:01.294Z,60.57
2018-05-31T00:31:01.316Z,60.56
2018-05-31T00:32:01.269Z,60.57
2018-05-31T00:33:01.498Z,60.57
2018-05-31T00:34:01.275Z,60.56
2018-05-31T00:35:01.328Z,60.54
2018-05-31T00:36:01.392Z,60.59
2018-05-31T00:37:01.611Z,60.56
2018-05-31T00:38:01.373Z,60.58
2018-05-31T00:39:01.447Z,60.59
2018-05-31T00:40:01.402Z,60.59
2018-05-31T00:41:01.433Z,60.57
2018-05-31T00:42:01.257Z,60.63
2018-05-31T00:43:01.410Z,60.58
2018-05-31T00:44:01.478Z,60.58
2018-05-31T00:45:01.410Z,60.58
2018-05-31T00:46:01.320Z,60.59
2018-05-31T00:47:05.326Z,60.55
2018-05-31T00:48:01.513Z,60.58
2018-05-31T00:49:01.457Z,60.61
2018-05-31T00:50:01.358Z,60.58
2018-05-31T00:51:01.351Z,60.6
2018-05-31T00:52:01.480Z,60.6
2018-05-31T00:53:01.353Z,60.6
2018-05-31T00:54:01.385Z,60.59
2018-05-31T00:55:01.294Z,60.58
2018-05-31T00:56:05.185Z,60.58
2018-05-31T00:57:01.362Z,60.55
2018-05-31T00:58:01.630Z,60.56
2018-05-31T00:59:01.388Z,60.58
2018-05-31T01:00:01.465Z,60.61
2018-05-31T01:01:01.578Z,60.59
2018-05-31T01:02:01.473Z,60.56
2018-05-31T01:03:01.587Z,60.59
2018-05-31T01:04:11.405Z,60.58
2018-05-31T01:05:04.360Z,60.61
2018-05-31T01:06:01.413Z,60.63
2018-05-31T01:07:01.412Z,60.6
2018-05-31T01:08:01.442Z,60.64
2018-05-31T01:09:01.498Z,60.6
2018-05-31T01:10:01.462Z,60.57
2018-05-31T01:11:01.463Z,60.61
2018-05-31T01:12:01.974Z,60.56
2018-05-31T01:13:01.437Z,60.64
2018-05-31T01:14:02.472Z,60.59
2018-05-31T01:15:01.489Z,60.62
2018-05-31T01:16:01.562Z,60.6
2018-05-31T01:17:01.478Z,60.59
2018-05-31T01:18:01.428Z,60.61
2018-05-31T01:19:01.499Z,60.59
2018-05-31T01:20:01.508Z,60.59
2018-05-31T01:21:01.447Z,60.58
2018-05-31T01:22:01.541Z,60.59
2018-05-31T01:23:01.752Z,60.59
2018-05-31T01:24:01.449Z,60.59
2018-05-31T01:25:01.538Z,60.57
2018-05-31T01:26:01.527Z,60.62
2018-05-31T01:27:01.112Z,60.64
2018-05-31T01:28:01.578Z,60.6
2018-05-31T01:29:01.086Z,60.61
2018-05-31T01:30:01.492Z,60.58
2018-05-31T01:31:01.515Z,60.62
2018-05-31T01:32:01.774Z,60.58
2018-05-31T01:33:01.478Z,60.59
2018-05-31T01:34:01.643Z,60.58
2018-05-31T01:35:01.453Z,60.61
2018-05-31T01:36:01.494Z,60.57
2018-05-31T01:37:01.389Z,60.54
2018-05-31T01:38:01.129Z,60.57
2018-05-31T01:39:01.526Z,60.62
2018-05-31T01:40:01.573Z,60.57
2018-05-31T01:41:01.226Z,60.57
2018-05-31T01:42:05.386Z,60.61
2018-05-31T01:43:01.675Z,60.61
2018-05-31T01:44:01.534Z,60.61
2018-05-31T01:45:01.635Z,60.64
2018-05-31T01:46:01.624Z,60.59
2018-05-31T01:47:01.627Z,60.58
2018-05-31T01:48:01.197Z,60.61
2018-05-31T01:49:01.190Z,60.61
2018-05-31T01:50:01.216Z,60.59
2018-05-31T01:51:04.969Z,60.58
2018-05-31T01:52:01.105Z,60.58
2018-05-31T01:53:01.295Z,60.62
2018-05-31T01:54:01.625Z,60.63
2018-05-31T01:55:01.119Z,60.58
2018-05-31T01:56:01.252Z,60.57
2018-05-31T01:57:01.673Z,60.59
2018-05-31T01:58:01.145Z,60.58
2018-05-31T01:59:01.791Z,60.63
2018-05-31T02:00:04.758Z,60.61
2018-05-31T02:01:01.717Z,60.66
2018-05-31T02:02:01.721Z,60.59
2018-05-31T02:03:01.216Z,60.58
2018-05-31T02:04:01.384Z,60.62
2018-05-31T02:05:01.297Z,60.65
2018-05-31T02:06:01.238Z,60.6
2018-05-31T02:07:01.322Z,60.57
2018-05-31T02:08:01.562Z,60.62
2018-05-31T02:09:03.716Z,60.59
2018-05-31T02:10:01.282Z,60.62
2018-05-31T02:11:01.221Z,60.59
2018-05-31T02:12:01.340Z,60.58
2018-05-31T02:13:01.235Z,60.61
2018-05-31T02:14:01.401Z,60.6
2018-05-31T02:15:01.206Z,60.58
2018-05-31T02:16:01.310Z,60.63
2018-05-31T02:17:01.719Z,60.6
2018-05-31T02:18:03.074Z,60.61
2018-05-31T02:19:01.298Z,60.63
2018-05-31T02:20:01.101Z,60.65
2018-05-31T02:21:01.208Z,60.57
2018-05-31T02:22:01.077Z,60.6
2018-05-31T02:23:01.188Z,60.63
2018-05-31T02:24:01.289Z,60.59
2018-05-31T02:25:01.309Z,60.59
2018-05-31T02:26:01.182Z,60.61
2018-05-31T02:27:02.711Z,60.64
2018-05-31T02:28:01.236Z,60.6
2018-05-31T02:29:01.100Z,60.62
2018-05-31T02:30:01.451Z,60.61
2018-05-31T02:31:01.443Z,60.6
2018-05-31T02:32:01.157Z,60.61
2018-05-31T02:33:01.191Z,60.63
2018-05-31T02:34:01.345Z,60.62
2018-05-31T02:35:01.367Z,60.6
2018-05-31T02:36:02.805Z,60.61
2018-05-31T02:37:01.094Z,60.61
2018-05-31T02:38:01.135Z,60.65
2018-05-31T02:39:01.172Z,60.65
2018-05-31T02:40:01.322Z,60.59
2018-05-31T02:41:01.199Z,60.61
2018-05-31T02:42:01.191Z,60.65
2018-05-31T02:43:01.380Z,60.61
2018-05-31T02:44:01.321Z,60.58
2018-05-31T02:45:01.526Z,60.66
2018-05-31T02:46:01.187Z,60.61
2018-05-31T02:47:01.285Z,60.63
2018-05-31T02:48:01.379Z,60.6
2018-05-31T02:49:01.452Z,60.58
2018-05-31T02:50:01.246Z,60.63
2018-05-31T02:51:01.263Z,60.61
2018-05-31T02:52:01.348Z,60.57
2018-05-31T02:53:01.378Z,60.57
2018-05-31T02:54:01.171Z,60.61
2018-05-31T02:55:01.166Z,60.64
2018-05-31T02:56:33.216Z,60.65
2018-05-31T02:57:01.165Z,60.6
2018-05-31T02:58:01.238Z,60.57
2018-05-31T02:59:01.383Z,60.61
2018-05-31T03:00:01.233Z,60.63
2018-05-31T03:01:01.204Z,60.63
2018-05-31T03:02:01.379Z,60.6
2018-05-31T03:03:01.370Z,60.61
2018-05-31T03:04:05.749Z,60.58
2018-05-31T03:05:01.245Z,60.65
2018-05-31T03:06:01.254Z,60.61
2018-05-31T03:07:01.464Z,60.65
2018-05-31T03:08:01.236Z,60.59
2018-05-31T03:09:01.314Z,60.6
2018-05-31T03:10:01.279Z,60.59
2018-05-31T03:11:01.270Z,60.61
2018-05-31T03:12:01.287Z,60.61
2018-05-31T03:13:01.706Z,60.65
2018-05-31T03:14:01.276Z,60.6
2018-05-31T03:15:01.292Z,60.65
2018-05-31T03:16:01.386Z,60.65
2018-05-31T03:17:01.465Z,60.61
2018-05-31T03:18:01.296Z,60.65
2018-05-31T03:19:01.444Z,60.6
2018-05-31T03:20:01.611Z,60.63
2018-05-31T03:21:01.208Z,60.63
2018-05-31T03:22:05.415Z,60.6
2018-05-31T03:23:01.362Z,60.63
2018-05-31T03:24:01.352Z,60.61
2018-05-31T03:25:01.503Z,60.63
2018-05-31T03:26:01.445Z,60.59
2018-05-31T03:27:01.342Z,60.64
2018-05-31T03:28:01.439Z,60.61
2018-05-31T03:29:01.499Z,60.66
2018-05-31T03:30:01.418Z,60.6
2018-05-31T03:31:04.442Z,60.63
2018-05-31T03:32:01.396Z,60.65
2018-05-31T03:33:01.406Z,60.62
2018-05-31T03:34:01.500Z,60.66
2018-05-31T03:35:01.397Z,60.64
2018-05-31T03:36:01.426Z,60.63
2018-05-31T03:37:01.418Z,60.63
2018-05-31T03:38:01.426Z,60.61
2018-05-31T03:39:01.440Z,60.65
2018-05-31T03:40:01.446Z,60.61
2018-05-31T03:41:01.385Z,60.6
2018-05-31T03:42:01.428Z,60.63
2018-05-31T03:43:01.472Z,60.61
2018-05-31T03:44:01.403Z,60.63
2018-05-31T03:45:01.497Z,60.61
2018-05-31T03:46:01.448Z,60.66
2018-05-31T03:47:01.475Z,60.65
2018-05-31T03:48:01.349Z,60.63
2018-05-31T03:49:01.433Z,60.61
2018-05-31T03:50:01.265Z,60.61
2018-05-31T03:51:01.463Z,60.66
2018-05-31T03:52:01.505Z,60.61
2018-05-31T03:53:01.287Z,60.59
2018-05-31T03:54:01.549Z,60.61
2018-05-31T03:55:01.536Z,60.62
2018-05-31T03:56:01.102Z,60.63
2018-05-31T03:57:01.279Z,60.61
2018-05-31T03:58:01.435Z,60.61
2018-05-31T03:59:01.395Z,60.59
2018-05-31T04:00:01.466Z,60.58
2018-05-31T04:01:01.586Z,60.66
2018-05-31T04:02:01.525Z,60.6
2018-05-31T04:03:01.521Z,60.68
2018-05-31T04:04:01.524Z,60.67
2018-05-31T04:05:01.339Z,60.6
2018-05-31T04:06:11.132Z,60.64
2018-05-31T04:07:01.581Z,60.64
2018-05-31T04:08:01.202Z,60.63
2018-05-31T04:09:01.493Z,60.65
2018-05-31T04:10:01.546Z,60.65
2018-05-31T04:11:01.618Z,60.64
2018-05-31T04:12:01.206Z,60.66
2018-05-31T04:13:02.214Z,60.66
2018-05-31T04:14:01.583Z,60.63
2018-05-31T04:15:01.514Z,60.63
2018-05-31T04:16:01.191Z,60.63
2018-05-31T04:17:01.555Z,60.64
2018-05-31T04:18:01.083Z,60.69
2018-05-31T04:19:01.181Z,60.63
2018-05-31T04:20:01.034Z,60.64
2018-05-31T04:21:01.210Z,60.66
2018-05-31T04:22:01.229Z,60.66
2018-05-31T04:23:01.675Z,60.62
2018-05-31T04:24:01.652Z,60.63
2018-05-31T04:25:01.716Z,60.66
2018-05-31T04:26:01.190Z,60.63
2018-05-31T04:27:01.051Z,60.64
2018-05-31T04:28:01.166Z,60.68
2018-05-31T04:29:01.111Z,60.62
2018-05-31T04:30:01.227Z,60.65
2018-05-31T04:31:01.319Z,60.64
2018-05-31T04:32:01.256Z,60.64
2018-05-31T04:33:01.199Z,60.63
2018-05-31T04:34:01.247Z,60.65
2018-05-31T04:35:01.294Z,60.67
2018-05-31T04:36:01.214Z,60.64
2018-05-31T04:37:01.192Z,60.67
2018-05-31T04:38:11.181Z,60.63
2018-05-31T04:39:01.125Z,60.69
2018-05-31T04:40:01.329Z,60.67
2018-05-31T04:41:01.150Z,60.65
2018-05-31T04:42:01.805Z,60.64
2018-05-31T04:43:01.269Z,60.66
2018-05-31T04:44:01.308Z,60.64
2018-05-31T04:45:01.287Z,60.66
2018-05-31T04:46:01.197Z,60.67
2018-05-31T04:47:01.247Z,60.65
2018-05-31T04:48:01.125Z,60.63
2018-05-31T04:49:01.234Z,60.62
2018-05-31T04:50:01.608Z,60.69
2018-05-31T04:51:02.282Z,60.67
2018-05-31T04:52:01.034Z,60.69
2018-05-31T04:53:01.260Z,60.69
2018-05-31T04:54:01.377Z,60.61
2018-05-31T04:55:01.151Z,60.63
2018-05-31T04:56:01.238Z,60.67
2018-05-31T04:57:01.209Z,60.64
2018-05-31T04:58:01.315Z,60.67
2018-05-31T04:59:01.201Z,60.63
2018-05-31T05:00:01.887Z,60.67
2018-05-31T05:01:01.069Z,60.67
2018-05-31T05:02:01.120Z,60.62
2018-05-31T05:03:01.970Z,60.69
2018-05-31T05:04:01.267Z,60.68
2018-05-31T05:05:01.323Z,60.68
2018-05-31T05:06:01.280Z,60.67
2018-05-31T05:07:01.361Z,60.65
2018-05-31T05:08:01.572Z,60.63
2018-05-31T05:09:02.492Z,60.69
2018-05-31T05:10:01.077Z,60.66
2018-05-31T05:11:01.114Z,60.63
2018-05-31T05:12:01.285Z,60.68
2018-05-31T05:13:01.260Z,60.67
2018-05-31T05:14:01.237Z,60.67
2018-05-31T05:15:01.190Z,60.64
2018-05-31T05:16:01.081Z,60.66
2018-05-31T05:17:01.254Z,60.67
2018-05-31T05:18:02.872Z,60.66
2018-05-31T05:19:01.264Z,60.64
2018-05-31T05:20:01.234Z,60.66
2018-05-31T05:21:01.142Z,60.64
2018-05-31T05:22:01.194Z,60.65
2018-05-31T05:23:01.159Z,60.66
2018-05-31T05:24:01.406Z,60.66
2018-05-31T05:25:01.430Z,60.63
2018-05-31T05:26:01.158Z,60.67
2018-05-31T05:27:02.620Z,60.68
2018-05-31T05:28:01.226Z,60.68
2018-05-31T05:29:01.287Z,60.64
2018-05-31T05:30:01.201Z,60.67
2018-05-31T05:31:01.317Z,60.67
2018-05-31T05:32:01.289Z,60.64
2018-05-31T05:33:01.283Z,60.67
2018-05-31T05:34:01.264Z,60.67
2018-05-31T05:35:01.439Z,60.63
2018-05-31T05:36:03.028Z,60.63
2018-05-31T05:37:01.342Z,60.66
2018-05-31T05:38:01.199Z,60.64
2018-05-31T05:39:01.199Z,60.64
2018-05-31T05:40:01.333Z,60.67
2018-05-31T05:41:01.327Z,60.67
2018-05-31T05:42:01.264Z,60.64
2018-05-31T05:43:01.246Z,60.69
2018-05-31T05:44:01.370Z,60.66
2018-05-31T05:45:03.698Z,60.67
2018-05-31T05:46:01.330Z,60.67
2018-05-31T05:47:01.378Z,60.67
2018-05-31T05:48:01.270Z,60.66
2018-05-31T05:49:01.793Z,60.66
2018-05-31T05:50:01.337Z,60.66
2018-05-31T05:51:01.303Z,60.67
2018-05-31T05:52:01.368Z,60.6
2018-05-31T05:53:01.324Z,60.64
2018-05-31T05:54:04.648Z,60.66
2018-05-31T05:55:01.383Z,60.64
2018-05-31T05:56:01.324Z,60.63
2018-05-31T05:57:01.377Z,60.63
2018-05-31T05:58:01.516Z,60.63
2018-05-31T05:59:01.429Z,60.67
2018-05-31T06:00:01.424Z,60.66
2018-05-31T06:01:01.346Z,60.65
2018-05-31T06:02:01.355Z,60.66
2018-05-31T06:03:04.793Z,60.71
2018-05-31T06:04:01.367Z,60.64
2018-05-31T06:05:01.394Z,60.65
2018-05-31T06:06:01.357Z,60.67
2018-05-31T06:07:01.429Z,60.62
2018-05-31T06:08:01.329Z,60.66
2018-05-31T06:09:01.438Z,60.69
2018-05-31T06:10:01.927Z,60.61
2018-05-31T06:11:01.478Z,60.64
2018-05-31T06:12:05.534Z,60.64
2018-05-31T06:13:01.566Z,60.65
2018-05-31T06:14:01.607Z,60.66
2018-05-31T06:15:01.460Z,60.7
2018-05-31T06:16:01.400Z,60.7
2018-05-31T06:17:01.258Z,60.65
2018-05-31T06:18:01.448Z,60.66
2018-05-31T06:19:01.446Z,60.62
2018-05-31T06:20:01.339Z,60.68
2018-05-31T06:21:01.006Z,60.64
2018-05-31T06:22:01.433Z,60.67
2018-05-31T06:23:01.469Z,60.65
2018-05-31T06:24:01.509Z,60.63
2018-05-31T06:25:01.673Z,60.63
2018-05-31T06:26:01.265Z,60.67
2018-05-31T06:27:01.083Z,60.68
2018-05-31T06:28:01.471Z,60.61
2018-05-31T06:29:01.644Z,60.62
2018-05-31T06:30:01.068Z,60.64
2018-05-31T06:31:01.436Z,60.67
2018-05-31T06:32:01.398Z,60.68
2018-05-31T06:33:01.490Z,60.64
2018-05-31T06:34:01.490Z,60.64
2018-05-31T06:35:01.485Z,60.65
2018-05-31T06:36:01.031Z,60.62
2018-05-31T06:37:01.470Z,60.63
2018-05-31T06:38:01.128Z,60.68
2018-05-31T06:39:01.074Z,60.64
2018-05-31T06:40:01.491Z,60.64
2018-05-31T06:41:01.046Z,60.63
2018-05-31T06:42:01.382Z,60.63
2018-05-31T06:43:01.542Z,60.6
2018-05-31T06:44:01.083Z,60.66
2018-05-31T06:45:01.099Z,60.63
2018-05-31T06:46:01.532Z,60.67
2018-05-31T06:47:01.143Z,60.62
2018-05-31T06:48:01.551Z,60.63
2018-05-31T06:49:01.070Z,60.67
2018-05-31T06:50:01.461Z,60.64
2018-05-31T06:51:01.126Z,60.64
2018-05-31T06:52:01.065Z,60.64
2018-05-31T06:53:01.011Z,60.64
2018-05-31T06:54:00.969Z,60.65
2018-05-31T06:55:01.110Z,60.66
2018-05-31T06:56:01.139Z,60.62
2018-05-31T06:57:01.016Z,60.65
2018-05-31T06:58:01.078Z,60.67
2018-05-31T06:59:01.086Z,60.63
2018-05-31T07:00:01.150Z,60.61
2018-05-31T07:01:01.207Z,60.64
2018-05-31T07:02:01.201Z,60.63
2018-05-31T07:03:00.933Z,60.62
2018-05-31T07:04:01.267Z,60.66
2018-05-31T07:05:01.227Z,60.6
2018-05-31T07:06:01.087Z,60.6
2018-05-31T07:07:01.224Z,60.65
2018-05-31T07:08:00.937Z,60.61
2018-05-31T07:09:00.943Z,60.63
2018-05-31T07:10:01.293Z,60.61
2018-05-31T07:11:01.626Z,60.61
2018-05-31T07:12:00.984Z,60.62
2018-05-31T07:13:01.133Z,60.63
2018-05-31T07:14:01.079Z,60.64
2018-05-31T07:15:01.148Z,60.64
2018-05-31T07:16:01.174Z,60.61
2018-05-31T07:17:01.265Z,60.64
2018-05-31T07:18:01.299Z,60.62
2018-05-31T07:19:01.233Z,60.63
2018-05-31T07:20:00.971Z,60.61
2018-05-31T07:21:01.015Z,60.62
2018-05-31T07:22:01.077Z,60.64
2018-05-31T07:23:00.995Z,60.62
2018-05-31T07:24:01.725Z,60.61
2018-05-31T07:25:01.120Z,60.63
2018-05-31T07:26:01.090Z,60.6
2018-05-31T07:27:00.916Z,60.64
2018-05-31T07:28:01.015Z,60.6
2018-05-31T07:29:01.311Z,60.61
2018-05-31T07:30:01.236Z,60.57
2018-05-31T07:31:01.050Z,60.61
2018-05-31T07:32:01.139Z,60.61
2018-05-31T07:33:01.082Z,60.62
2018-05-31T07:34:01.076Z,60.59
2018-05-31T07:35:01.144Z,60.62
2018-05-31T07:36:01.773Z,60.6
2018-05-31T07:37:01.322Z,60.62
2018-05-31T07:38:01.145Z,60.59
2018-05-31T07:39:00.973Z,60.59
2018-05-31T07:40:01.238Z,60.6
2018-05-31T07:41:01.192Z,60.61
2018-05-31T07:42:01.283Z,60.6
2018-05-31T07:43:01.198Z,60.59
2018-05-31T07:44:01.258Z,60.6
2018-05-31T07:45:01.465Z,60.61
2018-05-31T07:46:00.964Z,60.59
2018-05-31T07:47:01.080Z,60.6
2018-05-31T07:48:01.037Z,60.58
2018-05-31T07:49:01.227Z,60.63
2018-05-31T07:50:01.009Z,60.6
2018-05-31T07:51:01.127Z,60.61
2018-05-31T07:52:01.133Z,60.63
2018-05-31T07:53:01.110Z,60.59
2018-05-31T07:54:01.084Z,60.59
2018-05-31T07:55:01.021Z,60.63
2018-05-31T07:56:01.056Z,60.58
2018-05-31T07:57:01.310Z,60.59
2018-05-31T07:58:01.866Z,60.57
2018-05-31T07:59:01.064Z,60.61
2018-05-31T08:00:01.048Z,60.57
2018-05-31T08:01:01.111Z,60.57
2018-05-31T08:02:01.215Z,60.57
2018-05-31T08:03:01.143Z,60.61
2018-05-31T08:04:01.211Z,60.58
2018-05-31T08:05:01.076Z,60.6
2018-05-31T08:06:01.680Z,60.59
2018-05-31T08:07:01.198Z,60.58
2018-05-31T08:08:01.049Z,60.56
2018-05-31T08:09:01.172Z,60.6
2018-05-31T08:10:01.256Z,60.58
2018-05-31T08:11:01.177Z,60.57
2018-05-31T08:12:01.301Z,60.58
2018-05-31T08:13:01.134Z,60.57
2018-05-31T08:14:01.144Z,60.58
2018-05-31T08:15:01.143Z,60.58
2018-05-31T08:16:01.133Z,60.59
2018-05-31T08:17:01.140Z,60.59
2018-05-31T08:18:01.139Z,60.54
2018-05-31T08:19:01.149Z,60.59
2018-05-31T08:20:01.172Z,60.59
2018-05-31T08:21:01.366Z,60.58
2018-05-31T08:22:01.362Z,60.59
2018-05-31T08:23:01.279Z,60.58
2018-05-31T08:24:01.238Z,60.58
2018-05-31T08:25:01.353Z,60.58
2018-05-31T08:26:01.261Z,60.57
2018-05-31T08:27:01.234Z,60.57
2018-05-31T08:28:01.360Z,60.59
2018-05-31T08:29:01.223Z,60.56
2018-05-31T08:30:01.258Z,60.56
2018-05-31T08:31:01.256Z,60.57
2018-05-31T08:32:01.212Z,60.55
2018-05-31T08:33:01.254Z,60.54
2018-05-31T08:34:01.429Z,60.55
2018-05-31T08:35:01.280Z,60.58
2018-05-31T08:36:01.322Z,60.57
2018-05-31T08:37:01.258Z,60.56
2018-05-31T08:38:01.313Z,60.59
2018-05-31T08:39:01.285Z,60.55
2018-05-31T08:40:01.298Z,60.6
2018-05-31T08:41:01.347Z,60.55
2018-05-31T08:42:01.334Z,60.57
2018-05-31T08:43:01.327Z,60.57
2018-05-31T08:44:01.747Z,60.57
2018-05-31T08:45:01.291Z,60.58
2018-05-31T08:46:01.362Z,60.57
2018-05-31T08:47:01.366Z,60.56
2018-05-31T08:48:01.250Z,60.59
2018-05-31T08:49:01.382Z,60.58
2018-05-31T08:50:00.972Z,60.58
2018-05-31T08:51:02.227Z,60.58
2018-05-31T08:52:01.392Z,60.59
2018-05-31T08:53:01.407Z,60.58
2018-05-31T08:54:01.416Z,60.59
2018-05-31T08:55:01.358Z,60.6
2018-05-31T08:56:01.315Z,60.58
2018-05-31T08:57:00.982Z,60.59
2018-05-31T08:58:01.389Z,60.62
2018-05-31T08:59:00.962Z,60.63
2018-05-31T09:00:01.468Z,60.61
2018-05-31T09:01:00.991Z,60.62
2018-05-31T09:02:01.428Z,60.6
2018-05-31T09:03:01.425Z,60.61
2018-05-31T09:04:01.403Z,60.63
2018-05-31T09:05:01.328Z,60.6
2018-05-31T09:06:01.000Z,60.62
2018-05-31T09:07:01.544Z,60.6
2018-05-31T09:08:01.346Z,61.62
2018-05-31T09:09:01.473Z,61.11
2018-05-31T09:10:01.530Z,60.79
2018-05-31T09:11:01.051Z,61.14
2018-05-31T09:12:00.994Z,61.12
2018-05-31T09:13:01.095Z,61.11
2018-05-31T09:14:01.378Z,61.26
2018-05-31T09:15:00.961Z,61.32
2018-05-31T09:16:01.449Z,61.68
2018-05-31T09:17:01.756Z,61.72
2018-05-31T09:18:01.132Z,61.69
2018-05-31T09:19:01.127Z,61.61
2018-05-31T09:20:01.109Z,61.6
2018-05-31T09:21:01.454Z,61.57
2018-05-31T09:22:01.952Z,61.43
2018-05-31T09:23:01.010Z,61.28
2018-05-31T09:24:01.495Z,61.22
2018-05-31T09:25:01.077Z,61.23
2018-05-31T09:26:00.900Z,61.17
2018-05-31T09:27:01.141Z,61.13
2018-05-31T09:28:01.045Z,61.17
2018-05-31T09:29:01.175Z,61.14
2018-05-31T09:30:01.041Z,61.08
2018-05-31T09:31:01.184Z,60.95
2018-05-31T09:32:01.020Z,61.03
2018-05-31T09:33:00.880Z,60.94
2018-05-31T09:34:01.142Z,61.04
2018-05-31T09:35:01.452Z,61.06
2018-05-31T09:36:00.909Z,60.99
2018-05-31T09:37:00.892Z,61.06
2018-05-31T09:38:01.459Z,61.07
2018-05-31T09:39:00.955Z,61.07
2018-05-31T09:40:00.920Z,61.15
2018-05-31T09:41:01.148Z,61.2
2018-05-31T09:42:00.997Z,61.3
2018-05-31T09:43:01.048Z,61.2
2018-05-31T09:44:00.997Z,61.23
2018-05-31T09:45:01.116Z,61.18
2018-05-31T09:46:01.024Z,61.19
2018-05-31T09:47:01.264Z,61.23
2018-05-31T09:48:01.044Z,61.22
2018-05-31T09:49:01.079Z,61.25
2018-05-31T09:50:01.587Z,61.21
2018-05-31T09:51:01.245Z,61.27
2018-05-31T09:52:01.125Z,61.25
2018-05-31T09:53:01.220Z,61.21
2018-05-31T09:54:01.187Z,61.17
2018-05-31T09:55:00.997Z,61.3
2018-05-31T09:56:01.158Z,61.15
2018-05-31T09:57:00.990Z,61.11
2018-05-31T09:58:01.119Z,61.27
2018-05-31T09:59:01.040Z,61.12
2018-05-31T10:00:01.020Z,61.18
2018-05-31T10:01:01.124Z,60.99
2018-05-31T10:02:01.249Z,61.1
2018-05-31T10:03:00.906Z,61.09
2018-05-31T10:04:01.020Z,61.02
2018-05-31T10:05:01.091Z,61.14
2018-05-31T10:06:01.163Z,61.21
2018-05-31T10:07:01.028Z,61.12
2018-05-31T10:08:00.984Z,61.08
2018-05-31T10:09:00.921Z,61.43
2018-05-31T10:10:00.937Z,61.26
2018-05-31T10:11:01.000Z,61.04
2018-05-31T10:12:01.118Z,61.12
2018-05-31T10:13:00.986Z,61.27
2018-05-31T10:14:01.191Z,61.2
2018-05-31T10:15:01.000Z,61.24
2018-05-31T10:16:01.053Z,61.32
2018-05-31T10:17:01.131Z,61.15
2018-05-31T10:18:01.202Z,61.62
2018-05-31T10:19:01.040Z,61.56
2018-05-31T10:20:00.986Z,61.54
2018-05-31T10:21:01.022Z,61.47
2018-05-31T10:22:00.983Z,61.45
2018-05-31T10:23:01.163Z,61.38
2018-05-31T10:24:01.014Z,61.36
2018-05-31T10:25:01.125Z,61.3
2018-05-31T10:26:01.231Z,61.29
2018-05-31T10:27:01.068Z,61.3
2018-05-31T10:28:01.110Z,61.35
2018-05-31T10:29:01.282Z,61.21
2018-05-31T10:30:01.324Z,61.25
2018-05-31T10:31:01.456Z,61.36
2018-05-31T10:32:01.267Z,61.28
2018-05-31T10:33:02.216Z,61.26
2018-05-31T10:34:01.326Z,61.28
2018-05-31T10:35:01.210Z,61.27
2018-05-31T10:36:01.463Z,61.16
2018-05-31T10:37:02.198Z,61.12
2018-05-31T10:38:01.474Z,61.05
2018-05-31T10:39:01.647Z,61.22
2018-05-31T10:40:01.494Z,61.34
2018-05-31T10:41:01.311Z,61.61
2018-05-31T10:42:01.510Z,61.66
2018-05-31T10:43:01.564Z,61.54
2018-05-31T10:44:01.316Z,61.5
2018-05-31T10:45:01.301Z,61.33
2018-05-31T10:46:01.469Z,61.7
2018-05-31T10:47:01.196Z,62.77
2018-05-31T10:48:01.294Z,65.7
2018-05-31T10:49:01.194Z,61.8
2018-05-31T10:50:01.564Z,61.53
2018-05-31T10:51:01.345Z,61.62
2018-05-31T10:52:01.322Z,61.46
2018-05-31T10:53:01.581Z,61.44
2018-05-31T10:54:01.347Z,61.58
2018-05-31T10:55:01.627Z,61.66
2018-05-31T10:56:01.423Z,61.58
2018-05-31T10:57:01.464Z,61.62
2018-05-31T10:58:01.365Z,61.56
2018-05-31T10:59:01.302Z,61.61
2018-05-31T11:00:01.418Z,61.5
2018-05-31T11:01:01.150Z,61.52
2018-05-31T11:02:01.367Z,61.45
2018-05-31T11:03:01.217Z,61.49
2018-05-31T11:04:01.334Z,61.41
2018-05-31T11:05:01.162Z,61.45
2018-05-31T11:06:01.164Z,61.42
2018-05-31T11:07:01.614Z,61.52
2018-05-31T11:08:01.220Z,61.41
2018-05-31T11:09:01.488Z,61.47
2018-05-31T11:10:01.408Z,61.53
2018-05-31T11:11:01.248Z,61.47
2018-05-31T11:12:01.363Z,61.47
2018-05-31T11:13:01.203Z,61.52
2018-05-31T11:14:01.179Z,61.37
2018-05-31T11:15:02.262Z,61.4
2018-05-31T11:16:01.221Z,61.45
2018-05-31T11:17:01.222Z,61.34
2018-05-31T11:18:01.370Z,61.36
2018-05-31T11:19:01.221Z,61.37
2018-05-31T11:20:01.206Z,61.42
2018-05-31T11:21:01.260Z,61.36
2018-05-31T11:22:01.271Z,61.42
2018-05-31T11:23:01.240Z,61.4
2018-05-31T11:24:01.280Z,61.28
2018-05-31T11:25:01.238Z,61.3
2018-05-31T11:26:01.284Z,61.26
2018-05-31T11:27:01.420Z,61.32
2018-05-31T11:28:01.209Z,61.28
2018-05-31T11:29:01.171Z,61.39
2018-05-31T11:30:01.387Z,61.39
2018-05-31T11:31:01.235Z,61.41
2018-05-31T11:32:01.212Z,61.37
2018-05-31T11:33:01.187Z,61.37
2018-05-31T11:34:01.227Z,61.36
2018-05-31T11:35:01.328Z,61.31
2018-05-31T11:36:01.269Z,61.32
2018-05-31T11:37:11.237Z,61.37
2018-05-31T11:38:01.380Z,61.37
2018-05-31T11:39:01.370Z,61.33
2018-05-31T11:40:01.363Z,61.24
2018-05-31T11:41:01.380Z,61.3
2018-05-31T11:42:01.396Z,61.31
2018-05-31T11:43:01.286Z,61.37
2018-05-31T11:44:01.414Z,61.12
2018-05-31T11:45:01.411Z,61.27
2018-05-31T11:46:01.324Z,61.3
2018-05-31T11:47:01.293Z,61.23
2018-05-31T11:48:00.984Z,61.53
2018-05-31T11:49:01.422Z,61.44
2018-05-31T11:50:01.439Z,61.37
2018-05-31T11:51:00.924Z,61.39
2018-05-31T11:52:00.862Z,61.31
2018-05-31T11:53:01.037Z,61.32
2018-05-31T11:54:01.003Z,61.36
2018-05-31T11:55:01.033Z,61.39
2018-05-31T11:56:01.409Z,61.37
2018-05-31T11:57:01.436Z,61.36
2018-05-31T11:58:01.001Z,61.32
2018-05-31T11:59:00.870Z,61.37
2018-05-31T12:00:00.912Z,61.41
2018-05-31T12:01:01.469Z,61.28
2018-05-31T12:02:00.929Z,61.26
2018-05-31T12:03:01.413Z,61.25
2018-05-31T12:04:00.896Z,61.24
2018-05-31T12:05:01.457Z,61.19
2018-05-31T12:06:00.890Z,61.21
2018-05-31T12:07:01.429Z,61.18
2018-05-31T12:08:01.067Z,61.12
2018-05-31T12:09:01.332Z,61.23
2018-05-31T12:10:01.056Z,61.16
2018-05-31T12:11:00.852Z,61.19
2018-05-31T12:12:01.081Z,61.09
2018-05-31T12:13:01.012Z,61.19
2018-05-31T12:14:01.139Z,61.1
2018-05-31T12:15:01.004Z,61.14
2018-05-31T12:16:00.854Z,61.12
2018-05-31T12:17:01.511Z,61.13
2018-05-31T12:18:00.972Z,61.18
2018-05-31T12:19:00.993Z,61.12
2018-05-31T12:20:00.932Z,61.23
2018-05-31T12:21:01.021Z,61.23
2018-05-31T12:22:01.524Z,61.18
2018-05-31T12:23:01.024Z,61.2
2018-05-31T12:24:00.967Z,61.2
2018-05-31T12:25:00.937Z,61.2
2018-05-31T12:26:01.204Z,61.22
2018-05-31T12:27:00.831Z,61.28
2018-05-31T12:28:01.205Z,61.19
2018-05-31T12:29:01.094Z,61.2
2018-05-31T12:30:00.917Z,61.21
2018-05-31T12:31:01.040Z,61.21
2018-05-31T12:32:01.017Z,61.18
2018-05-31T12:33:01.090Z,61.16
2018-05-31T12:34:01.153Z,61.16
2018-05-31T12:35:01.098Z,61.13
2018-05-31T12:36:00.901Z,61.13
2018-05-31T12:37:01.049Z,61.11
2018-05-31T12:38:01.092Z,61.15
2018-05-31T12:39:01.046Z,61.13
2018-05-31T12:40:01.078Z,61.13
2018-05-31T12:41:01.251Z,61.14
2018-05-31T12:42:00.986Z,61.13
2018-05-31T12:43:01.070Z,61.16
2018-05-31T12:44:01.098Z,61.13
2018-05-31T12:45:00.876Z,61.14
2018-05-31T12:46:01.001Z,61.13
2018-05-31T12:47:00.952Z,61.07
2018-05-31T12:48:01.013Z,61.07
2018-05-31T12:49:01.070Z,61.02
2018-05-31T12:50:00.977Z,61.01
2018-05-31T12:51:01.022Z,60.96
2018-05-31T12:52:00.934Z,60.93
2018-05-31T12:53:00.903Z,60.91
2018-05-31T12:54:00.952Z,60.88
2018-05-31T12:55:00.994Z,60.94